Weather at Turtle Island Seaplane Base

Public forecast

Using degrees Celsius for public forecast. Weather courtesy of forecast.io.

Closest aviation weather report (METAR) to Turtle Island Seaplane Base

Closest report is Nadi International Airport, 47.6 nm (88.1 km) S. Retrieved 2022/01/19 14:00 UTC (21 minutes ago):

NFFN 191400Z 00000KT 9999 FEW030 25/24 Q1004 NOSIG

Closest aviation forecast (TAF) to Turtle Island Seaplane Base

Closest forecast is Nadi International Airport, 47.6 nm (88.1 km) S. Retrieved 2022/01/19 12:00 UTC (2 hours ago):

TAF NFFN 191107Z 1912/2012 1004KT 9999 FEW028 SCT100 BECMG 1922/1924 30010KT TEMPO 2003/2008 5000 +TSRA BKN015 SCT016CB BECMG 2004/2006 12006KT